createdAt,value
2022-10-22T00:00:12.104Z,70.10
2022-10-22T00:02:41.337Z,70.30
2022-10-22T00:05:11.119Z,70.50
2022-10-22T00:07:40.344Z,70.60
2022-10-22T00:10:10.525Z,70.90
2022-10-22T00:12:41.255Z,71.00
2022-10-22T00:15:12.373Z,71.10
2022-10-22T00:17:41.636Z,71.30
2022-10-22T00:20:11.617Z,71.50
2022-10-22T00:22:40.499Z,71.70
2022-10-22T00:25:10.310Z,71.70
2022-10-22T00:27:40.871Z,71.90
2022-10-22T00:30:11.524Z,72.10
2022-10-22T00:32:40.755Z,72.00
2022-10-22T00:35:10.010Z,72.10
2022-10-22T00:37:38.939Z,72.20
2022-10-22T00:40:08.688Z,72.20
2022-10-22T00:42:37.796Z,72.30
2022-10-22T00:45:18.396Z,72.40
2022-10-22T00:47:54.605Z,72.50
2022-10-22T00:50:28.110Z,72.50
2022-10-22T00:52:58.465Z,72.60
2022-10-22T00:55:28.219Z,72.70
2022-10-22T00:57:58.991Z,72.90
2022-10-22T01:00:29.639Z,72.90
2022-10-22T01:02:59.550Z,73.10
2022-10-22T01:05:30.708Z,73.20
2022-10-22T01:08:00.149Z,73.30
2022-10-22T01:10:48.497Z,73.30
2022-10-22T01:13:27.722Z,73.50
2022-10-22T01:16:08.090Z,73.70
2022-10-22T01:18:41.820Z,73.80
2022-10-22T01:21:18.030Z,73.90
2022-10-22T01:24:16.866Z,73.90
2022-10-22T01:27:00.796Z,74.00
2022-10-22T01:29:35.810Z,73.90
2022-10-22T01:32:15.597Z,74.00
2022-10-22T01:34:49.319Z,74.10
2022-10-22T01:37:20.006Z,74.20
2022-10-22T01:39:49.630Z,74.40
2022-10-22T01:42:18.369Z,74.60
2022-10-22T01:44:50.345Z,74.60
2022-10-22T01:47:28.180Z,74.80
2022-10-22T01:50:32.212Z,74.90
2022-10-22T01:53:24.137Z,75.10
2022-10-22T01:56:11.037Z,75.10
2022-10-22T01:58:46.643Z,75.20
2022-10-22T02:01:24.987Z,75.30
2022-10-22T02:04:00.631Z,75.40
2022-10-22T02:06:30.354Z,75.40
2022-10-22T02:09:00.610Z,75.40
2022-10-22T02:11:49.255Z,75.50
2022-10-22T02:14:20.770Z,75.60
2022-10-22T02:16:52.136Z,75.70
2022-10-22T02:19:26.711Z,75.70
2022-10-22T02:21:56.750Z,75.70
2022-10-22T02:24:26.771Z,75.90
2022-10-22T02:27:02.489Z,75.80
2022-10-22T02:29:39.193Z,75.80
2022-10-22T02:32:13.503Z,76.00
2022-10-22T02:34:43.167Z,76.10
2022-10-22T02:37:12.406Z,76.10
2022-10-22T02:39:41.818Z,76.20
2022-10-22T02:42:12.279Z,76.30
2022-10-22T02:44:41.230Z,76.40
2022-10-22T02:47:11.574Z,76.50
2022-10-22T02:49:40.455Z,76.60
2022-10-22T02:52:09.331Z,76.70
2022-10-22T02:54:38.126Z,76.80
2022-10-22T02:57:07.308Z,76.80
2022-10-22T02:59:36.196Z,76.90
2022-10-22T03:02:05.112Z,77.00
2022-10-22T03:04:35.455Z,77.10
2022-10-22T03:07:04.273Z,77.10
2022-10-22T03:09:33.102Z,77.20
2022-10-22T03:12:01.915Z,77.30
2022-10-22T03:14:30.725Z,77.40
2022-10-22T03:16:59.505Z,77.40
2022-10-22T03:19:28.322Z,77.30
2022-10-22T03:22:01.623Z,77.10
2022-10-22T03:24:35.424Z,77.10
2022-10-22T03:27:24.453Z,77.30
2022-10-22T03:29:54.431Z,77.70
2022-10-22T03:32:23.332Z,77.40
2022-10-22T03:34:52.144Z,77.40
2022-10-22T03:37:22.776Z,77.50
2022-10-22T03:39:51.982Z,77.50
2022-10-22T03:42:20.699Z,77.50
2022-10-22T03:44:49.821Z,77.60
2022-10-22T03:47:18.822Z,77.70
2022-10-22T03:49:47.715Z,77.80
2022-10-22T03:52:16.961Z,77.90
2022-10-22T03:54:47.398Z,78.00
2022-10-22T03:57:17.038Z,78.10
2022-10-22T03:59:47.451Z,78.20
2022-10-22T04:02:35.030Z,78.20
2022-10-22T04:05:04.028Z,78.30
2022-10-22T04:07:32.959Z,78.40
2022-10-22T04:10:03.180Z,78.40
2022-10-22T04:12:32.110Z,78.50
2022-10-22T04:15:00.938Z,78.60
2022-10-22T04:17:35.815Z,78.70
2022-10-22T04:20:06.297Z,79.00
2022-10-22T04:22:53.710Z,79.10
2022-10-22T04:25:23.883Z,79.10
2022-10-22T04:27:52.733Z,79.20
2022-10-22T04:30:21.517Z,79.40
2022-10-22T04:32:50.425Z,79.40
2022-10-22T04:35:19.276Z,79.50
2022-10-22T04:37:48.077Z,79.60
2022-10-22T04:40:17.063Z,79.60
2022-10-22T04:42:47.200Z,79.80
2022-10-22T04:45:16.524Z,79.80
2022-10-22T04:47:45.304Z,80.10
2022-10-22T04:50:14.201Z,80.10
2022-10-22T04:52:43.142Z,80.20
2022-10-22T04:55:11.975Z,80.30
2022-10-22T04:57:40.965Z,80.60
2022-10-22T05:00:12.999Z,80.80
2022-10-22T05:02:45.022Z,80.90
2022-10-22T05:05:13.839Z,81.00
2022-10-22T05:07:42.771Z,81.20
2022-10-22T05:10:12.230Z,81.20
2022-10-22T05:12:41.054Z,81.30
2022-10-22T05:15:12.761Z,81.30
2022-10-22T05:17:42.241Z,81.20
2022-10-22T05:20:11.911Z,81.40
2022-10-22T05:22:40.728Z,81.40
2022-10-22T05:25:10.173Z,81.60
2022-10-22T05:27:39.333Z,81.80
2022-10-22T05:30:10.820Z,81.90
2022-10-22T05:32:39.603Z,81.70
2022-10-22T05:35:09.162Z,81.80
2022-10-22T05:37:38.222Z,82.00
2022-10-22T05:40:19.457Z,82.00
2022-10-22T05:42:55.914Z,82.00
2022-10-22T05:45:26.171Z,82.00
2022-10-22T05:47:54.946Z,82.00
2022-10-22T05:50:23.927Z,81.90
2022-10-22T05:52:52.723Z,81.50
2022-10-22T05:55:21.450Z,80.20
2022-10-22T05:57:50.639Z,79.70
2022-10-22T06:00:19.749Z,79.20
2022-10-22T06:02:53.270Z,78.70
2022-10-22T06:05:22.261Z,78.20
2022-10-22T06:07:51.161Z,77.60
2022-10-22T06:10:22.072Z,77.10
2022-10-22T06:12:51.129Z,76.40
2022-10-22T06:15:21.606Z,76.10
2022-10-22T06:17:52.075Z,75.40
2022-10-22T06:20:20.995Z,75.10
2022-10-22T06:22:49.823Z,74.50
2022-10-22T06:25:18.821Z,74.10
2022-10-22T06:27:52.042Z,73.70
2022-10-22T06:30:20.856Z,73.20
2022-10-22T06:32:49.598Z,72.80
2022-10-22T06:35:19.908Z,72.30
2022-10-22T06:37:48.812Z,71.80
2022-10-22T06:40:18.909Z,71.30
2022-10-22T06:42:47.691Z,70.90
2022-10-22T06:45:17.033Z,70.50
2022-10-22T06:47:46.889Z,70.10
2022-10-22T06:50:15.977Z,69.50
2022-10-22T06:52:46.274Z,69.20
2022-10-22T06:55:15.206Z,68.70
2022-10-22T06:57:44.300Z,68.40
2022-10-22T07:00:14.496Z,67.90
2022-10-22T07:02:43.656Z,67.60
2022-10-22T07:05:12.793Z,67.20
2022-10-22T07:07:41.763Z,66.70
2022-10-22T07:10:12.290Z,66.40
2022-10-22T07:12:41.372Z,66.10
2022-10-22T07:15:11.452Z,65.40
2022-10-22T07:17:58.570Z,65.00
2022-10-22T07:20:27.431Z,64.40
2022-10-22T07:22:56.377Z,64.20
2022-10-22T07:25:26.718Z,63.80
2022-10-22T07:27:55.571Z,63.30
2022-10-22T07:30:24.465Z,62.90
2022-10-22T07:32:53.332Z,62.70
2022-10-22T07:35:22.295Z,62.30
2022-10-22T07:37:51.097Z,62.00
2022-10-22T07:40:20.042Z,61.80
2022-10-22T07:42:50.403Z,61.50
2022-10-22T07:45:19.465Z,60.90
2022-10-22T07:47:49.934Z,60.50
2022-10-22T07:50:19.133Z,60.20
2022-10-22T07:52:48.200Z,60.00
2022-10-22T07:55:16.950Z,59.60
2022-10-22T07:57:45.815Z,59.90
2022-10-22T08:00:18.550Z,59.20
2022-10-22T08:02:49.396Z,58.80
2022-10-22T08:05:18.565Z,58.30
2022-10-22T08:07:47.466Z,58.10
2022-10-22T08:10:16.500Z,57.20
2022-10-22T08:12:45.456Z,56.50
2022-10-22T08:15:15.666Z,56.20
2022-10-22T08:17:44.760Z,55.90
2022-10-22T08:20:14.458Z,55.80
2022-10-22T08:22:43.350Z,55.60
2022-10-22T08:25:12.731Z,55.10
2022-10-22T08:27:42.126Z,54.60
2022-10-22T08:30:13.109Z,54.10
2022-10-22T08:32:43.835Z,53.70
2022-10-22T08:35:15.434Z,53.80
2022-10-22T08:37:46.762Z,54.00
2022-10-22T08:40:26.476Z,54.00
2022-10-22T08:43:27.931Z,53.20
2022-10-22T08:46:09.416Z,51.80
2022-10-22T08:48:47.221Z,50.90
2022-10-22T08:51:21.849Z,49.50
2022-10-22T08:54:05.870Z,47.30
2022-10-22T08:56:37.946Z,45.60
2022-10-22T08:59:14.264Z,43.60
2022-10-22T09:01:46.601Z,42.00
2022-10-22T09:04:25.594Z,41.00
2022-10-22T09:06:56.133Z,39.70
2022-10-22T09:09:27.930Z,38.40
2022-10-22T09:11:59.864Z,37.60
2022-10-22T09:14:30.099Z,36.40
2022-10-22T09:17:27.632Z,36.00
2022-10-22T09:20:09.820Z,35.30
2022-10-22T09:22:48.002Z,34.50
2022-10-22T09:25:21.948Z,33.60
2022-10-22T09:27:52.875Z,33.10
2022-10-22T09:30:23.557Z,32.50
2022-10-22T09:32:53.596Z,32.00
2022-10-22T09:35:48.339Z,31.30
2022-10-22T09:38:20.303Z,30.90
2022-10-22T09:40:51.720Z,30.40
2022-10-22T09:43:21.258Z,29.80
2022-10-22T09:45:57.228Z,29.50
2022-10-22T09:48:32.395Z,29.20
2022-10-22T09:51:07.616Z,29.00
2022-10-22T09:53:39.181Z,28.90
2022-10-22T09:56:11.218Z,28.70
2022-10-22T09:58:49.539Z,28.50
2022-10-22T10:01:20.992Z,28.40
2022-10-22T10:03:50.998Z,28.10
2022-10-22T10:06:23.044Z,28.00
2022-10-22T10:08:52.287Z,27.90
2022-10-22T10:11:29.877Z,27.90
2022-10-22T10:14:10.280Z,27.50
2022-10-22T10:16:48.062Z,26.90
2022-10-22T10:19:42.614Z,26.70
2022-10-22T10:22:23.159Z,26.80
2022-10-22T10:25:04.670Z,26.80
2022-10-22T10:27:39.690Z,26.40
2022-10-22T10:30:14.583Z,26.60
2022-10-22T10:33:02.306Z,26.20
2022-10-22T10:35:57.080Z,26.00
2022-10-22T10:38:39.046Z,25.90
2022-10-22T10:41:26.408Z,25.80
2022-10-22T10:44:07.062Z,25.70
2022-10-22T10:46:44.722Z,25.70
2022-10-22T10:49:21.213Z,25.60
2022-10-22T10:51:58.978Z,25.50
2022-10-22T10:54:48.420Z,25.50
2022-10-22T10:57:27.494Z,25.30
2022-10-22T11:00:07.449Z,25.10
2022-10-22T11:02:58.946Z,25.10
2022-10-22T11:05:34.675Z,24.90
2022-10-22T11:08:07.949Z,24.80
2022-10-22T11:10:43.504Z,24.70
2022-10-22T11:13:22.369Z,25.20
2022-10-22T11:15:57.992Z,25.80
2022-10-22T11:18:48.104Z,26.60
2022-10-22T11:21:25.843Z,27.20
2022-10-22T11:23:59.727Z,28.00
2022-10-22T11:26:42.863Z,28.70
2022-10-22T11:29:15.268Z,29.00
2022-10-22T11:31:45.613Z,29.00
2022-10-22T11:34:34.924Z,29.10
2022-10-22T11:37:05.872Z,29.10
2022-10-22T11:39:40.917Z,28.90
2022-10-22T11:42:17.614Z,29.10
2022-10-22T11:45:00.004Z,29.10
2022-10-22T11:47:30.862Z,29.30
2022-10-22T11:50:05.265Z,29.30
2022-10-22T11:52:49.006Z,29.20
2022-10-22T11:55:46.165Z,29.50
2022-10-22T11:58:36.367Z,29.80
2022-10-22T12:01:28.619Z,30.00
2022-10-22T12:04:19.827Z,30.40
2022-10-22T12:07:01.663Z,31.00
2022-10-22T12:09:34.587Z,31.40
2022-10-22T12:12:11.700Z,31.80
2022-10-22T12:14:54.392Z,32.10
2022-10-22T12:17:24.244Z,32.10
2022-10-22T12:20:02.093Z,32.30
2022-10-22T12:22:33.813Z,32.40
2022-10-22T12:25:04.818Z,32.50
2022-10-22T12:27:45.485Z,32.40
2022-10-22T12:30:24.405Z,32.60
2022-10-22T12:32:55.176Z,32.80
2022-10-22T12:35:27.043Z,32.70
2022-10-22T12:37:58.439Z,32.60
2022-10-22T12:40:29.937Z,32.80
2022-10-22T12:43:00.410Z,32.80
2022-10-22T12:45:32.157Z,32.80
2022-10-22T12:48:23.172Z,32.80
2022-10-22T12:50:54.571Z,33.10
2022-10-22T12:53:28.679Z,33.60
2022-10-22T12:56:02.447Z,33.50
2022-10-22T12:58:38.838Z,33.70
2022-10-22T13:01:13.051Z,33.90
2022-10-22T13:03:44.990Z,33.80
2022-10-22T13:06:15.886Z,33.90
2022-10-22T13:08:45.062Z,34.00
2022-10-22T13:11:14.321Z,34.30
2022-10-22T13:13:45.900Z,34.70
2022-10-22T13:16:19.061Z,34.60
2022-10-22T13:18:49.435Z,34.70
2022-10-22T13:21:40.896Z,34.80
2022-10-22T13:24:23.864Z,34.80
2022-10-22T13:26:55.630Z,35.00
2022-10-22T13:29:25.803Z,35.10
2022-10-22T13:31:56.137Z,35.10
2022-10-22T13:34:45.772Z,35.00
2022-10-22T13:37:14.647Z,35.30
2022-10-22T13:39:43.605Z,35.70
2022-10-22T13:42:14.285Z,35.80
2022-10-22T13:44:43.118Z,35.90
2022-10-22T13:47:26.033Z,35.70
2022-10-22T13:52:37.335Z,35.60
2022-10-22T13:55:15.784Z,35.60
2022-10-22T13:57:44.800Z,36.30
2022-10-22T14:00:16.156Z,36.80
2022-10-22T14:02:50.900Z,36.80
2022-10-22T14:05:20.317Z,37.10
2022-10-22T14:07:49.480Z,37.40
2022-10-22T14:10:37.077Z,37.80
2022-10-22T14:13:08.609Z,38.20
2022-10-22T14:15:38.225Z,39.00
2022-10-22T14:18:10.944Z,38.90
2022-10-22T14:20:43.082Z,39.30
2022-10-22T14:25:51.489Z,39.80
2022-10-22T14:28:20.645Z,40.10
2022-10-22T14:30:50.357Z,40.30
2022-10-22T14:33:28.799Z,40.70
2022-10-22T14:36:00.960Z,41.10
2022-10-22T14:38:30.393Z,41.40
2022-10-22T14:41:01.149Z,41.80
2022-10-22T14:43:32.615Z,42.20
2022-10-22T14:46:01.588Z,42.60
2022-10-22T14:48:31.814Z,43.00
2022-10-22T14:51:00.653Z,43.40
2022-10-22T14:53:29.967Z,43.50
2022-10-22T14:55:59.808Z,43.80
2022-10-22T14:58:28.898Z,44.10
2022-10-22T15:00:57.822Z,44.30
2022-10-22T15:03:26.730Z,45.00
2022-10-22T15:05:57.927Z,45.00
2022-10-22T15:08:27.909Z,45.30
2022-10-22T15:11:01.452Z,45.60
2022-10-22T15:13:31.616Z,45.90
2022-10-22T15:16:01.110Z,46.10
2022-10-22T15:18:30.089Z,46.40
2022-10-22T15:21:01.974Z,46.60
2022-10-22T15:23:49.638Z,47.00
2022-10-22T15:26:18.872Z,47.20
2022-10-22T15:28:47.902Z,47.40
2022-10-22T15:31:16.833Z,47.50
2022-10-22T15:33:45.832Z,47.70
2022-10-22T15:36:34.483Z,48.00
2022-10-22T15:39:08.899Z,48.10
2022-10-22T15:41:38.424Z,48.30
2022-10-22T15:44:08.752Z,48.50
2022-10-22T15:46:37.652Z,48.70
2022-10-22T15:49:06.932Z,49.00
2022-10-22T15:51:37.197Z,49.50
2022-10-22T15:54:07.903Z,49.70
2022-10-22T15:56:39.042Z,50.40
2022-10-22T15:59:08.037Z,50.10
2022-10-22T16:01:37.208Z,50.40
2022-10-22T16:04:06.305Z,50.70
2022-10-22T16:06:38.631Z,51.00
2022-10-22T16:09:09.774Z,51.40
2022-10-22T16:11:40.485Z,51.80
2022-10-22T16:14:10.147Z,52.10
2022-10-22T16:16:42.801Z,52.10
2022-10-22T16:19:13.619Z,52.20
2022-10-22T16:21:44.884Z,52.50
2022-10-22T16:24:32.275Z,52.70
2022-10-22T16:27:01.195Z,53.40
2022-10-22T16:29:31.019Z,52.90
2022-10-22T16:32:00.085Z,53.10
2022-10-22T16:34:29.134Z,53.20
2022-10-22T16:36:59.687Z,53.20
2022-10-22T16:39:28.517Z,53.40
2022-10-22T16:41:57.440Z,53.40
2022-10-22T16:44:26.282Z,53.50
2022-10-22T16:46:55.098Z,53.50
2022-10-22T16:49:24.163Z,53.50
2022-10-22T16:51:53.186Z,53.50
2022-10-22T16:54:23.447Z,53.70
2022-10-22T16:56:52.515Z,53.80
2022-10-22T16:59:21.526Z,53.90
2022-10-22T17:01:50.961Z,54.00
2022-10-22T17:04:19.909Z,54.20
2022-10-22T17:06:49.216Z,54.30
2022-10-22T17:09:18.235Z,54.40
2022-10-22T17:11:48.513Z,54.60
2022-10-22T17:14:17.335Z,54.70
2022-10-22T17:16:49.064Z,55.00
2022-10-22T17:19:18.143Z,55.80
2022-10-22T17:21:48.948Z,55.50
2022-10-22T17:24:18.124Z,55.80
2022-10-22T17:26:48.794Z,56.10
2022-10-22T17:29:18.264Z,56.20
2022-10-22T17:31:47.151Z,56.50
2022-10-22T17:34:18.161Z,56.80
2022-10-22T17:36:46.975Z,57.10
2022-10-22T17:39:19.808Z,57.30
2022-10-22T17:42:08.743Z,57.60
2022-10-22T17:44:38.172Z,58.00
2022-10-22T17:47:07.145Z,58.10
2022-10-22T17:49:38.550Z,58.20
2022-10-22T17:52:07.572Z,58.30
2022-10-22T17:54:37.216Z,58.60
2022-10-22T17:57:07.607Z,58.80
2022-10-22T17:59:36.979Z,59.10
2022-10-22T18:02:06.012Z,59.20
2022-10-22T18:04:35.256Z,59.20
2022-10-22T18:07:04.035Z,59.50
2022-10-22T18:09:33.068Z,59.80
2022-10-22T18:12:01.909Z,60.10
2022-10-22T18:14:32.376Z,60.50
2022-10-22T18:17:03.893Z,61.00
2022-10-22T18:19:33.069Z,61.20
2022-10-22T18:22:02.030Z,61.40
2022-10-22T18:24:30.891Z,61.50
2022-10-22T18:26:59.774Z,61.90
2022-10-22T18:29:28.710Z,62.10
2022-10-22T18:32:00.884Z,62.20
2022-10-22T18:34:30.612Z,62.50
2022-10-22T18:37:00.023Z,62.50
2022-10-22T18:39:28.866Z,62.60
2022-10-22T18:41:57.723Z,62.90
2022-10-22T18:44:26.736Z,63.00
2022-10-22T18:46:55.554Z,63.00
2022-10-22T18:49:26.047Z,63.00
2022-10-22T18:51:54.935Z,63.00
2022-10-22T18:54:24.769Z,63.20
2022-10-22T18:56:56.281Z,63.40
2022-10-22T18:59:28.675Z,63.50
2022-10-22T19:01:59.848Z,63.40
2022-10-22T19:04:36.857Z,63.40
2022-10-22T19:07:06.355Z,63.60
2022-10-22T19:09:36.038Z,63.80
2022-10-22T19:12:05.133Z,63.90
2022-10-22T19:14:34.428Z,64.10
2022-10-22T19:17:03.227Z,64.50
2022-10-22T19:19:33.664Z,64.50
2022-10-22T19:22:02.562Z,64.70
2022-10-22T19:24:31.441Z,64.80
2022-10-22T19:27:00.452Z,65.10
2022-10-22T19:29:29.607Z,65.30
2022-10-22T19:31:58.414Z,65.40
2022-10-22T19:34:27.483Z,65.60
2022-10-22T19:36:57.845Z,65.70
2022-10-22T19:39:26.713Z,65.90
2022-10-22T19:41:55.543Z,66.00
2022-10-22T19:44:24.565Z,66.30
2022-10-22T19:46:53.497Z,66.30
2022-10-22T19:49:23.148Z,66.50
2022-10-22T19:51:52.074Z,66.70
2022-10-22T19:54:22.817Z,66.60
2022-10-22T19:56:52.225Z,66.80
2022-10-22T19:59:23.008Z,66.60
2022-10-22T20:01:51.963Z,66.50
2022-10-22T20:04:25.226Z,66.60
2022-10-22T20:06:54.200Z,66.70
2022-10-22T20:09:24.559Z,66.80
2022-10-22T20:11:53.498Z,66.90
2022-10-22T20:14:22.417Z,67.10
2022-10-22T20:16:51.270Z,67.40
2022-10-22T20:19:20.107Z,67.40
2022-10-22T20:21:50.719Z,67.40
2022-10-22T20:24:20.034Z,67.50
2022-10-22T20:26:50.364Z,67.40
2022-10-22T20:29:19.806Z,67.40
2022-10-22T20:31:49.306Z,67.30
2022-10-22T20:34:18.403Z,67.30
2022-10-22T20:36:47.451Z,67.30
2022-10-22T20:39:17.322Z,67.10
2022-10-22T20:41:46.190Z,67.00
2022-10-22T20:44:19.911Z,67.00
2022-10-22T20:46:48.779Z,67.60
2022-10-22T20:49:19.382Z,67.20
2022-10-22T20:51:48.631Z,67.10
2022-10-22T20:54:17.825Z,67.10
2022-10-22T20:56:48.136Z,67.30
2022-10-22T20:59:19.012Z,67.60
2022-10-22T21:01:51.089Z,67.80
2022-10-22T21:04:23.626Z,68.00
2022-10-22T21:06:53.714Z,68.10
2022-10-22T21:09:23.082Z,68.40
2022-10-22T21:14:31.025Z,69.10
2022-10-22T21:17:03.867Z,69.30
2022-10-22T21:19:32.878Z,69.50
2022-10-22T21:22:01.701Z,69.50
2022-10-22T21:24:30.726Z,69.50
2022-10-22T21:26:59.530Z,70.30
2022-10-22T21:29:29.901Z,69.70
2022-10-22T21:31:58.872Z,69.80
2022-10-22T21:34:27.618Z,69.90
2022-10-22T21:36:56.588Z,70.10
2022-10-22T21:39:25.713Z,70.40
2022-10-22T21:41:54.714Z,70.60
2022-10-22T21:44:23.472Z,70.70
2022-10-22T21:46:53.836Z,70.80
2022-10-22T21:49:41.490Z,70.80
2022-10-22T21:52:10.410Z,70.80
2022-10-22T21:54:40.101Z,70.70
2022-10-22T21:57:08.841Z,70.70
2022-10-22T21:59:38.163Z,70.80
2022-10-22T22:02:28.866Z,71.00
2022-10-22T22:04:57.797Z,70.80
2022-10-22T22:07:45.538Z,70.90
2022-10-22T22:10:15.090Z,71.20
2022-10-22T22:12:44.214Z,71.40
2022-10-22T22:15:13.308Z,71.80
2022-10-22T22:17:43.652Z,72.20
2022-10-22T22:20:31.327Z,72.50
2022-10-22T22:23:00.202Z,72.70
2022-10-22T22:25:28.997Z,73.00
2022-10-22T22:27:57.709Z,73.10
2022-10-22T22:30:26.600Z,73.30
2022-10-22T22:32:56.764Z,73.50
2022-10-22T22:35:25.624Z,73.70
2022-10-22T22:37:54.671Z,73.80
2022-10-22T22:40:23.550Z,73.90
2022-10-22T22:42:52.412Z,74.60
2022-10-22T22:45:21.397Z,74.20
2022-10-22T22:47:50.232Z,74.40
2022-10-22T22:50:20.521Z,74.50
2022-10-22T22:52:50.195Z,74.70
2022-10-22T22:55:19.378Z,74.80
2022-10-22T22:57:48.341Z,74.60
2022-10-22T23:00:18.068Z,74.60
2022-10-22T23:02:46.923Z,74.70
2022-10-22T23:05:16.220Z,74.60
2022-10-22T23:07:46.464Z,74.60
2022-10-22T23:10:15.304Z,74.50
2022-10-22T23:12:45.195Z,74.40
2022-10-22T23:15:14.001Z,74.20
2022-10-22T23:17:42.801Z,74.20
2022-10-22T23:20:12.008Z,74.30
2022-10-22T23:22:41.065Z,74.30
2022-10-22T23:25:11.959Z,74.40
2022-10-22T23:27:41.150Z,74.50
2022-10-22T23:30:11.436Z,74.60
2022-10-22T23:32:40.598Z,74.50
2022-10-22T23:35:10.905Z,74.60
2022-10-22T23:37:40.009Z,74.80
2022-10-22T23:40:11.779Z,75.00
2022-10-22T23:42:44.308Z,75.00
2022-10-22T23:45:13.389Z,75.20
2022-10-22T23:47:42.639Z,75.30
2022-10-22T23:50:13.392Z,75.30
2022-10-22T23:52:42.637Z,75.30
2022-10-22T23:55:13.418Z,75.40
2022-10-22T23:57:42.326Z,75.50
